sensor_id;sensor_type;location;lat;lon;timestamp;temperature;humidity
29917;DHT22;16786;49.466;11.068;2023-07-09T00:01:57;22.80;99.90
29917;DHT22;16786;49.466;11.068;2023-07-09T00:04:25;22.70;99.90
29917;DHT22;16786;49.466;11.068;2023-07-09T00:06:53;22.60;99.90
29917;DHT22;16786;49.466;11.068;2023-07-09T00:09:21;22.50;99.90
29917;DHT22;16786;49.466;11.068;2023-07-09T00:11:49;22.40;99.90
29917;DHT22;16786;49.466;11.068;2023-07-09T00:14:17;22.30;99.90
29917;DHT22;16786;49.466;11.068;2023-07-09T00:16:45;22.20;99.90
29917;DHT22;16786;49.466;11.068;2023-07-09T00:19:21;22.20;99.90
29917;DHT22;16786;49.466;11.068;2023-07-09T00:21:51;22.10;99.90
29917;DHT22;16786;49.466;11.068;2023-07-09T00:24:22;22.00;99.90
29917;DHT22;16786;49.466;11.068;2023-07-09T00:26:50;21.90;99.90
29917;DHT22;16786;49.466;11.068;2023-07-09T00:29:17;21.90;99.90
29917;DHT22;16786;49.466;11.068;2023-07-09T00:31:45;21.90;99.90
29917;DHT22;16786;49.466;11.068;2023-07-09T00:34:15;21.80;99.90
29917;DHT22;16786;49.466;11.068;2023-07-09T00:36:45;21.80;99.90
29917;DHT22;16786;49.466;11.068;2023-07-09T00:39:17;21.80;99.90
29917;DHT22;16786;49.466;11.068;2023-07-09T00:41:47;21.80;99.90
29917;DHT22;16786;49.466;11.068;2023-07-09T00:44:32;21.70;99.90
29917;DHT22;16786;49.466;11.068;2023-07-09T00:49:31;21.70;99.90
29917;DHT22;16786;49.466;11.068;2023-07-09T00:52:20;21.70;99.90
29917;DHT22;16786;49.466;11.068;2023-07-09T00:54:51;21.70;99.90
29917;DHT22;16786;49.466;11.068;2023-07-09T00:57:21;21.70;99.90
29917;DHT22;16786;49.466;11.068;2023-07-09T00:59:59;21.70;99.90
29917;DHT22;16786;49.466;11.068;2023-07-09T01:02:42;21.60;99.90
29917;DHT22;16786;49.466;11.068;2023-07-09T01:05:12;21.60;99.90
29917;DHT22;16786;49.466;11.068;2023-07-09T01:07:43;21.60;99.90
29917;DHT22;16786;49.466;11.068;2023-07-09T01:10:14;21.60;99.90
29917;DHT22;16786;49.466;11.068;2023-07-09T01:12:44;21.60;99.90
29917;DHT22;16786;49.466;11.068;2023-07-09T01:15:11;21.60;99.90
29917;DHT22;16786;49.466;11.068;2023-07-09T01:17:39;21.60;99.90
29917;DHT22;16786;49.466;11.068;2023-07-09T01:20:08;21.60;99.90
29917;DHT22;16786;49.466;11.068;2023-07-09T01:22:36;21.60;99.90
29917;DHT22;16786;49.466;11.068;2023-07-09T01:25:05;21.60;99.90
29917;DHT22;16786;49.466;11.068;2023-07-09T01:27:40;21.50;99.90
29917;DHT22;16786;49.466;11.068;2023-07-09T01:30:11;21.60;99.90
29917;DHT22;16786;49.466;11.068;2023-07-09T01:32:39;21.50;99.90
29917;DHT22;16786;49.466;11.068;2023-07-09T01:35:07;21.50;99.90
29917;DHT22;16786;49.466;11.068;2023-07-09T01:37:36;21.50;99.90
29917;DHT22;16786;49.466;11.068;2023-07-09T01:40:05;21.50;99.90
29917;DHT22;16786;49.466;11.068;2023-07-09T01:42:55;21.50;99.90
29917;DHT22;16786;49.466;11.068;2023-07-09T01:45:27;21.40;99.90
29917;DHT22;16786;49.466;11.068;2023-07-09T01:47:55;21.30;99.90
29917;DHT22;16786;49.466;11.068;2023-07-09T01:50:23;21.30;99.90
29917;DHT22;16786;49.466;11.068;2023-07-09T01:52:52;21.20;99.90
29917;DHT22;16786;49.466;11.068;2023-07-09T01:55:21;21.20;99.90
29917;DHT22;16786;49.466;11.068;2023-07-09T01:57:48;21.20;99.90
29917;DHT22;16786;49.466;11.068;2023-07-09T02:00:18;21.30;99.90
29917;DHT22;16786;49.466;11.068;2023-07-09T02:02:48;21.20;99.90
29917;DHT22;16786;49.466;11.068;2023-07-09T02:05:19;21.20;99.90
29917;DHT22;16786;49.466;11.068;2023-07-09T02:07:47;21.20;99.90
29917;DHT22;16786;49.466;11.068;2023-07-09T02:10:16;21.20;99.90
29917;DHT22;16786;49.466;11.068;2023-07-09T02:12:45;21.10;99.90
29917;DHT22;16786;49.466;11.068;2023-07-09T02:15:13;21.20;99.90
29917;DHT22;16786;49.466;11.068;2023-07-09T02:17:41;21.20;99.90
29917;DHT22;16786;49.466;11.068;2023-07-09T02:20:09;21.10;99.90
29917;DHT22;16786;49.466;11.068;2023-07-09T02:22:38;21.10;99.90
29917;DHT22;16786;49.466;11.068;2023-07-09T02:25:06;21.00;99.90
29917;DHT22;16786;49.466;11.068;2023-07-09T02:27:35;21.00;99.90
29917;DHT22;16786;49.466;11.068;2023-07-09T02:30:04;20.90;99.90
29917;DHT22;16786;49.466;11.068;2023-07-09T02:32:32;20.90;99.90
29917;DHT22;16786;49.466;11.068;2023-07-09T02:34:59;20.90;99.90
29917;DHT22;16786;49.466;11.068;2023-07-09T02:37:27;20.80;99.90
29917;DHT22;16786;49.466;11.068;2023-07-09T02:39:54;20.80;99.90
29917;DHT22;16786;49.466;11.068;2023-07-09T02:42:22;20.80;99.90
29917;DHT22;16786;49.466;11.068;2023-07-09T02:44:50;20.70;99.90
29917;DHT22;16786;49.466;11.068;2023-07-09T02:47:18;20.70;99.90
29917;DHT22;16786;49.466;11.068;2023-07-09T02:49:48;20.60;99.90
29917;DHT22;16786;49.466;11.068;2023-07-09T02:52:15;20.60;99.90
29917;DHT22;16786;49.466;11.068;2023-07-09T02:54:43;20.60;99.90
29917;DHT22;16786;49.466;11.068;2023-07-09T02:57:11;20.50;99.90
29917;DHT22;16786;49.466;11.068;2023-07-09T02:59:38;20.50;99.90
29917;DHT22;16786;49.466;11.068;2023-07-09T03:02:06;20.40;99.90
29917;DHT22;16786;49.466;11.068;2023-07-09T03:04:33;20.50;99.90
29917;DHT22;16786;49.466;11.068;2023-07-09T03:07:01;20.40;99.90
29917;DHT22;16786;49.466;11.068;2023-07-09T03:09:29;20.30;99.90
29917;DHT22;16786;49.466;11.068;2023-07-09T03:11:56;20.40;99.90
29917;DHT22;16786;49.466;11.068;2023-07-09T03:14:24;20.40;99.90
29917;DHT22;16786;49.466;11.068;2023-07-09T03:16:51;20.40;99.90
29917;DHT22;16786;49.466;11.068;2023-07-09T03:19:19;20.40;99.90
29917;DHT22;16786;49.466;11.068;2023-07-09T03:21:46;20.40;99.90
29917;DHT22;16786;49.466;11.068;2023-07-09T03:24:14;20.30;99.90
29917;DHT22;16786;49.466;11.068;2023-07-09T03:26:46;20.30;99.90
29917;DHT22;16786;49.466;11.068;2023-07-09T03:29:14;20.30;99.90
29917;DHT22;16786;49.466;11.068;2023-07-09T03:31:41;20.30;99.90
29917;DHT22;16786;49.466;11.068;2023-07-09T03:34:09;20.40;99.90
29917;DHT22;16786;49.466;11.068;2023-07-09T03:36:37;20.40;99.90
29917;DHT22;16786;49.466;11.068;2023-07-09T03:39:05;20.40;99.90
29917;DHT22;16786;49.466;11.068;2023-07-09T03:41:33;20.40;99.90
29917;DHT22;16786;49.466;11.068;2023-07-09T03:44:01;20.40;99.90
29917;DHT22;16786;49.466;11.068;2023-07-09T03:46:28;20.50;99.90
29917;DHT22;16786;49.466;11.068;2023-07-09T03:48:58;20.50;99.90
29917;DHT22;16786;49.466;11.068;2023-07-09T03:51:26;20.40;99.90
29917;DHT22;16786;49.466;11.068;2023-07-09T03:53:53;20.50;99.90
29917;DHT22;16786;49.466;11.068;2023-07-09T03:56:21;20.40;99.90
29917;DHT22;16786;49.466;11.068;2023-07-09T03:58:48;20.50;99.90
29917;DHT22;16786;49.466;11.068;2023-07-09T04:01:15;20.50;99.90
29917;DHT22;16786;49.466;11.068;2023-07-09T04:03:44;20.50;99.90
29917;DHT22;16786;49.466;11.068;2023-07-09T04:06:11;20.60;99.90
29917;DHT22;16786;49.466;11.068;2023-07-09T04:08:38;20.60;99.90
29917;DHT22;16786;49.466;11.068;2023-07-09T04:11:06;20.70;99.90
29917;DHT22;16786;49.466;11.068;2023-07-09T04:13:33;20.70;99.90
29917;DHT22;16786;49.466;11.068;2023-07-09T04:16:00;20.70;99.90
29917;DHT22;16786;49.466;11.068;2023-07-09T04:18:28;20.80;99.90
29917;DHT22;16786;49.466;11.068;2023-07-09T04:20:56;20.80;99.90
29917;DHT22;16786;49.466;11.068;2023-07-09T04:23:23;20.80;99.90
29917;DHT22;16786;49.466;11.068;2023-07-09T04:25:51;20.80;99.90
29917;DHT22;16786;49.466;11.068;2023-07-09T04:28:18;20.90;99.90
29917;DHT22;16786;49.466;11.068;2023-07-09T04:30:50;21.00;99.90
29917;DHT22;16786;49.466;11.068;2023-07-09T04:33:19;21.10;99.90
29917;DHT22;16786;49.466;11.068;2023-07-09T04:35:48;21.10;99.90
29917;DHT22;16786;49.466;11.068;2023-07-09T04:38:15;21.20;99.90
29917;DHT22;16786;49.466;11.068;2023-07-09T04:40:43;21.20;99.90
29917;DHT22;16786;49.466;11.068;2023-07-09T04:43:11;21.20;99.90
29917;DHT22;16786;49.466;11.068;2023-07-09T04:45:38;21.30;99.90
29917;DHT22;16786;49.466;11.068;2023-07-09T04:48:06;21.30;99.90
29917;DHT22;16786;49.466;11.068;2023-07-09T04:50:34;21.40;99.90
29917;DHT22;16786;49.466;11.068;2023-07-09T04:53:01;21.40;99.90
29917;DHT22;16786;49.466;11.068;2023-07-09T04:55:29;21.50;99.90
29917;DHT22;16786;49.466;11.068;2023-07-09T04:57:56;21.60;99.90
29917;DHT22;16786;49.466;11.068;2023-07-09T05:00:23;21.70;99.90
29917;DHT22;16786;49.466;11.068;2023-07-09T05:02:51;21.70;99.90
29917;DHT22;16786;49.466;11.068;2023-07-09T05:05:18;21.80;99.90
29917;DHT22;16786;49.466;11.068;2023-07-09T05:07:46;21.90;99.90
29917;DHT22;16786;49.466;11.068;2023-07-09T05:10:14;22.00;99.90
29917;DHT22;16786;49.466;11.068;2023-07-09T05:12:52;22.00;99.90
29917;DHT22;16786;49.466;11.068;2023-07-09T05:15:22;22.10;99.90
29917;DHT22;16786;49.466;11.068;2023-07-09T05:17:49;22.10;99.90
29917;DHT22;16786;49.466;11.068;2023-07-09T05:20:17;22.20;99.90
29917;DHT22;16786;49.466;11.068;2023-07-09T05:22:44;22.20;99.90
29917;DHT22;16786;49.466;11.068;2023-07-09T05:25:11;22.40;99.90
29917;DHT22;16786;49.466;11.068;2023-07-09T05:27:39;22.40;99.90
29917;DHT22;16786;49.466;11.068;2023-07-09T05:30:07;22.50;99.90
29917;DHT22;16786;49.466;11.068;2023-07-09T05:32:36;22.50;99.90
29917;DHT22;16786;49.466;11.068;2023-07-09T05:35:04;22.60;99.90
29917;DHT22;16786;49.466;11.068;2023-07-09T05:37:31;22.60;99.90
29917;DHT22;16786;49.466;11.068;2023-07-09T05:39:59;22.60;99.90
29917;DHT22;16786;49.466;11.068;2023-07-09T05:42:26;22.60;99.90
29917;DHT22;16786;49.466;11.068;2023-07-09T05:44:53;22.70;99.90
29917;DHT22;16786;49.466;11.068;2023-07-09T05:47:21;22.70;99.90
29917;DHT22;16786;49.466;11.068;2023-07-09T05:49:48;22.80;99.90
29917;DHT22;16786;49.466;11.068;2023-07-09T05:52:19;22.90;99.90
29917;DHT22;16786;49.466;11.068;2023-07-09T05:54:49;22.90;99.90
29917;DHT22;16786;49.466;11.068;2023-07-09T05:57:17;23.10;99.90
29917;DHT22;16786;49.466;11.068;2023-07-09T05:59:44;23.10;99.90
29917;DHT22;16786;49.466;11.068;2023-07-09T06:02:13;23.20;99.90
29917;DHT22;16786;49.466;11.068;2023-07-09T06:04:41;23.30;99.90
29917;DHT22;16786;49.466;11.068;2023-07-09T06:07:09;23.30;99.90
29917;DHT22;16786;49.466;11.068;2023-07-09T06:09:37;23.30;99.90
29917;DHT22;16786;49.466;11.068;2023-07-09T06:12:04;23.30;99.90
29917;DHT22;16786;49.466;11.068;2023-07-09T06:14:33;23.40;99.90
29917;DHT22;16786;49.466;11.068;2023-07-09T06:17:00;23.50;99.90
29917;DHT22;16786;49.466;11.068;2023-07-09T06:19:28;23.60;99.90
29917;DHT22;16786;49.466;11.068;2023-07-09T06:21:56;23.70;99.90
29917;DHT22;16786;49.466;11.068;2023-07-09T06:24:24;23.70;99.90
29917;DHT22;16786;49.466;11.068;2023-07-09T06:26:51;23.80;99.90
29917;DHT22;16786;49.466;11.068;2023-07-09T06:29:18;24.00;99.90
29917;DHT22;16786;49.466;11.068;2023-07-09T06:31:46;24.10;99.90
29917;DHT22;16786;49.466;11.068;2023-07-09T06:34:13;24.20;99.90
29917;DHT22;16786;49.466;11.068;2023-07-09T06:36:40;24.30;99.90
29917;DHT22;16786;49.466;11.068;2023-07-09T06:39:10;24.40;99.90
29917;DHT22;16786;49.466;11.068;2023-07-09T06:41:38;24.50;99.90
29917;DHT22;16786;49.466;11.068;2023-07-09T06:44:26;24.60;99.90
29917;DHT22;16786;49.466;11.068;2023-07-09T06:46:54;24.70;99.90
29917;DHT22;16786;49.466;11.068;2023-07-09T06:49:21;24.80;99.90
29917;DHT22;16786;49.466;11.068;2023-07-09T06:51:49;24.80;99.90
29917;DHT22;16786;49.466;11.068;2023-07-09T06:54:17;25.00;99.90
29917;DHT22;16786;49.466;11.068;2023-07-09T06:56:44;25.00;99.90
29917;DHT22;16786;49.466;11.068;2023-07-09T06:59:12;25.10;99.90
29917;DHT22;16786;49.466;11.068;2023-07-09T07:01:39;25.20;99.90
29917;DHT22;16786;49.466;11.068;2023-07-09T07:04:06;25.30;99.90
29917;DHT22;16786;49.466;11.068;2023-07-09T07:06:34;25.30;99.90
29917;DHT22;16786;49.466;11.068;2023-07-09T07:09:01;25.40;99.90
29917;DHT22;16786;49.466;11.068;2023-07-09T07:11:29;25.50;99.90
29917;DHT22;16786;49.466;11.068;2023-07-09T07:13:57;25.60;99.90
29917;DHT22;16786;49.466;11.068;2023-07-09T07:16:25;25.70;99.90
29917;DHT22;16786;49.466;11.068;2023-07-09T07:18:52;25.90;99.90
29917;DHT22;16786;49.466;11.068;2023-07-09T07:21:20;26.00;99.90
29917;DHT22;16786;49.466;11.068;2023-07-09T07:23:47;26.10;99.90
29917;DHT22;16786;49.466;11.068;2023-07-09T07:26:16;26.20;99.90
29917;DHT22;16786;49.466;11.068;2023-07-09T07:28:46;26.40;99.90
29917;DHT22;16786;49.466;11.068;2023-07-09T07:31:14;26.50;99.90
29917;DHT22;16786;49.466;11.068;2023-07-09T07:33:41;26.60;99.90
29917;DHT22;16786;49.466;11.068;2023-07-09T07:36:11;26.70;99.90
29917;DHT22;16786;49.466;11.068;2023-07-09T07:38:56;26.80;99.90
29917;DHT22;16786;49.466;11.068;2023-07-09T07:41:23;26.90;99.90
29917;DHT22;16786;49.466;11.068;2023-07-09T07:43:50;27.00;99.90
29917;DHT22;16786;49.466;11.068;2023-07-09T07:46:18;27.10;99.70
29917;DHT22;16786;49.466;11.068;2023-07-09T07:48:45;27.30;99.30
29917;DHT22;16786;49.466;11.068;2023-07-09T07:51:13;27.30;99.00
29917;DHT22;16786;49.466;11.068;2023-07-09T07:53:40;27.50;98.70
29917;DHT22;16786;49.466;11.068;2023-07-09T07:56:07;27.50;98.60
29917;DHT22;16786;49.466;11.068;2023-07-09T07:58:35;27.60;98.60
29917;DHT22;16786;49.466;11.068;2023-07-09T08:01:03;27.70;98.50
29917;DHT22;16786;49.466;11.068;2023-07-09T08:03:31;27.80;98.00
29917;DHT22;16786;49.466;11.068;2023-07-09T08:05:58;27.90;97.80
29917;DHT22;16786;49.466;11.068;2023-07-09T08:08:29;28.00;97.60
29917;DHT22;16786;49.466;11.068;2023-07-09T08:11:05;28.30;97.30
29917;DHT22;16786;49.466;11.068;2023-07-09T08:13:36;28.30;97.30
29917;DHT22;16786;49.466;11.068;2023-07-09T08:16:07;28.50;96.70
29917;DHT22;16786;49.466;11.068;2023-07-09T08:18:35;28.50;96.00
29917;DHT22;16786;49.466;11.068;2023-07-09T08:21:02;28.60;95.90
29917;DHT22;16786;49.466;11.068;2023-07-09T08:23:30;28.70;95.70
29917;DHT22;16786;49.466;11.068;2023-07-09T08:26:00;28.80;95.20
29917;DHT22;16786;49.466;11.068;2023-07-09T08:28:30;29.00;95.00
29917;DHT22;16786;49.466;11.068;2023-07-09T08:30:57;29.10;95.40
29917;DHT22;16786;49.466;11.068;2023-07-09T08:33:25;29.20;94.70
29917;DHT22;16786;49.466;11.068;2023-07-09T08:35:53;29.40;94.30
29917;DHT22;16786;49.466;11.068;2023-07-09T08:38:21;29.40;93.60
29917;DHT22;16786;49.466;11.068;2023-07-09T08:41:01;29.50;93.40
29917;DHT22;16786;49.466;11.068;2023-07-09T08:43:39;29.60;93.40
29917;DHT22;16786;49.466;11.068;2023-07-09T08:48:46;29.90;92.60
29917;DHT22;16786;49.466;11.068;2023-07-09T08:51:19;30.10;92.20
29917;DHT22;16786;49.466;11.068;2023-07-09T08:53:59;30.20;91.90
29917;DHT22;16786;49.466;11.068;2023-07-09T08:56:31;30.20;91.60
29917;DHT22;16786;49.466;11.068;2023-07-09T08:59:01;30.40;91.10
29917;DHT22;16786;49.466;11.068;2023-07-09T09:01:40;30.40;90.70
29917;DHT22;16786;49.466;11.068;2023-07-09T09:04:34;30.40;88.70
29917;DHT22;16786;49.466;11.068;2023-07-09T09:07:33;30.50;88.50
29917;DHT22;16786;49.466;11.068;2023-07-09T09:10:04;30.50;86.70
29917;DHT22;16786;49.466;11.068;2023-07-09T09:15:21;30.50;84.40
29917;DHT22;16786;49.466;11.068;2023-07-09T09:17:53;30.60;83.30
29917;DHT22;16786;49.466;11.068;2023-07-09T09:20:22;30.80;82.80
29917;DHT22;16786;49.466;11.068;2023-07-09T09:23:12;30.90;82.50
29917;DHT22;16786;49.466;11.068;2023-07-09T09:25:44;31.00;81.30
29917;DHT22;16786;49.466;11.068;2023-07-09T09:28:14;31.30;80.60
29917;DHT22;16786;49.466;11.068;2023-07-09T09:30:41;31.30;80.10
29917;DHT22;16786;49.466;11.068;2023-07-09T09:33:10;31.50;79.30
29917;DHT22;16786;49.466;11.068;2023-07-09T09:35:42;31.60;79.50
29917;DHT22;16786;49.466;11.068;2023-07-09T09:38:16;31.70;78.20
29917;DHT22;16786;49.466;11.068;2023-07-09T09:40:44;31.90;77.60
29917;DHT22;16786;49.466;11.068;2023-07-09T09:43:19;32.00;76.20
29917;DHT22;16786;49.466;11.068;2023-07-09T09:45:49;32.00;75.50
29917;DHT22;16786;49.466;11.068;2023-07-09T09:48:28;32.10;75.80
29917;DHT22;16786;49.466;11.068;2023-07-09T09:50:56;32.20;75.10
29917;DHT22;16786;49.466;11.068;2023-07-09T09:53:34;32.20;73.30
29917;DHT22;16786;49.466;11.068;2023-07-09T09:56:05;32.30;72.90
29917;DHT22;16786;49.466;11.068;2023-07-09T09:58:34;32.30;71.90
29917;DHT22;16786;49.466;11.068;2023-07-09T10:01:01;32.40;72.40
29917;DHT22;16786;49.466;11.068;2023-07-09T10:03:34;32.50;70.10
29917;DHT22;16786;49.466;11.068;2023-07-09T10:06:12;32.60;70.90
29917;DHT22;16786;49.466;11.068;2023-07-09T10:12:08;32.90;69.40
29917;DHT22;16786;49.466;11.068;2023-07-09T10:17:16;33.00;68.90
29917;DHT22;16786;49.466;11.068;2023-07-09T10:19:57;33.20;68.50
29917;DHT22;16786;49.466;11.068;2023-07-09T10:22:57;33.60;66.60
29917;DHT22;16786;49.466;11.068;2023-07-09T10:25:30;33.60;66.40
29917;DHT22;16786;49.466;11.068;2023-07-09T10:31:22;33.90;65.20
29917;DHT22;16786;49.466;11.068;2023-07-09T10:39:19;34.90;62.80
29917;DHT22;16786;49.466;11.068;2023-07-09T10:41:50;35.30;62.50
29917;DHT22;16786;49.466;11.068;2023-07-09T10:44:36;35.60;61.00
29917;DHT22;16786;49.466;11.068;2023-07-09T10:47:13;35.70;59.30
29917;DHT22;16786;49.466;11.068;2023-07-09T10:49:45;35.90;58.40
29917;DHT22;16786;49.466;11.068;2023-07-09T10:52:25;36.10;58.10
29917;DHT22;16786;49.466;11.068;2023-07-09T10:54:59;36.20;58.30
29917;DHT22;16786;49.466;11.068;2023-07-09T10:57:34;36.40;58.10
29917;DHT22;16786;49.466;11.068;2023-07-09T11:00:12;36.70;57.40
29917;DHT22;16786;49.466;11.068;2023-07-09T11:02:42;36.90;56.40
29917;DHT22;16786;49.466;11.068;2023-07-09T11:05:11;37.30;55.50
29917;DHT22;16786;49.466;11.068;2023-07-09T11:07:40;37.30;54.80
29917;DHT22;16786;49.466;11.068;2023-07-09T11:10:44;37.10;54.80
29917;DHT22;16786;49.466;11.068;2023-07-09T11:16:28;37.10;54.30
29917;DHT22;16786;49.466;11.068;2023-07-09T11:19:02;36.90;54.50
29917;DHT22;16786;49.466;11.068;2023-07-09T11:21:30;37.00;54.80
29917;DHT22;16786;49.466;11.068;2023-07-09T11:24:01;37.20;54.60
29917;DHT22;16786;49.466;11.068;2023-07-09T11:26:34;37.50;54.10
29917;DHT22;16786;49.466;11.068;2023-07-09T11:31:37;38.30;53.00
29917;DHT22;16786;49.466;11.068;2023-07-09T11:39:29;37.20;53.30
29917;DHT22;16786;49.466;11.068;2023-07-09T11:41:58;36.80;53.60
29917;DHT22;16786;49.466;11.068;2023-07-09T11:44:33;36.70;53.80
29917;DHT22;16786;49.466;11.068;2023-07-09T11:49:59;36.80;53.70
29917;DHT22;16786;49.466;11.068;2023-07-09T11:52:37;37.20;53.70
29917;DHT22;16786;49.466;11.068;2023-07-09T11:58:02;38.70;51.60
29917;DHT22;16786;49.466;11.068;2023-07-09T12:00:38;38.70;51.30
29917;DHT22;16786;49.466;11.068;2023-07-09T12:03:10;39.30;50.30
29917;DHT22;16786;49.466;11.068;2023-07-09T12:05:48;39.70;50.00
29917;DHT22;16786;49.466;11.068;2023-07-09T12:08:16;39.90;49.80
29917;DHT22;16786;49.466;11.068;2023-07-09T12:10:44;40.00;48.90
29917;DHT22;16786;49.466;11.068;2023-07-09T12:13:12;39.70;48.50
29917;DHT22;16786;49.466;11.068;2023-07-09T12:15:40;39.20;48.90
29917;DHT22;16786;49.466;11.068;2023-07-09T12:18:12;39.70;49.00
29917;DHT22;16786;49.466;11.068;2023-07-09T12:20:40;40.40;48.40
29917;DHT22;16786;49.466;11.068;2023-07-09T12:23:26;41.20;47.90
29917;DHT22;16786;49.466;11.068;2023-07-09T12:25:55;41.70;46.10
29917;DHT22;16786;49.466;11.068;2023-07-09T12:28:27;41.90;46.00
29917;DHT22;16786;49.466;11.068;2023-07-09T12:30:55;42.00;45.70
29917;DHT22;16786;49.466;11.068;2023-07-09T12:33:25;42.50;45.20
29917;DHT22;16786;49.466;11.068;2023-07-09T12:35:56;42.30;44.40
29917;DHT22;16786;49.466;11.068;2023-07-09T12:38:27;42.50;44.80
29917;DHT22;16786;49.466;11.068;2023-07-09T12:40:55;43.10;44.40
29917;DHT22;16786;49.466;11.068;2023-07-09T12:43:29;42.20;43.20
29917;DHT22;16786;49.466;11.068;2023-07-09T12:45:59;43.10;43.10
29917;DHT22;16786;49.466;11.068;2023-07-09T12:48:28;43.80;43.00
29917;DHT22;16786;49.466;11.068;2023-07-09T12:50:58;44.10;42.10
29917;DHT22;16786;49.466;11.068;2023-07-09T12:53:28;44.20;42.10
29917;DHT22;16786;49.466;11.068;2023-07-09T12:56:00;44.30;42.00
29917;DHT22;16786;49.466;11.068;2023-07-09T12:58:32;44.60;41.30
29917;DHT22;16786;49.466;11.068;2023-07-09T13:01:05;44.40;41.30
29917;DHT22;16786;49.466;11.068;2023-07-09T13:03:33;43.50;41.70
29917;DHT22;16786;49.466;11.068;2023-07-09T13:06:07;42.70;41.90
29917;DHT22;16786;49.466;11.068;2023-07-09T13:08:56;41.60;42.60
29917;DHT22;16786;49.466;11.068;2023-07-09T13:11:26;41.40;42.90
29917;DHT22;16786;49.466;11.068;2023-07-09T13:14:03;40.90;43.10
29917;DHT22;16786;49.466;11.068;2023-07-09T13:16:37;40.40;43.80
29917;DHT22;16786;49.466;11.068;2023-07-09T13:19:04;40.20;43.70
29917;DHT22;16786;49.466;11.068;2023-07-09T13:21:31;39.80;43.70
29917;DHT22;16786;49.466;11.068;2023-07-09T13:23:59;39.30;44.20
29917;DHT22;16786;49.466;11.068;2023-07-09T13:26:27;39.10;44.90
29917;DHT22;16786;49.466;11.068;2023-07-09T13:28:55;39.00;45.00
29917;DHT22;16786;49.466;11.068;2023-07-09T13:31:23;38.90;45.10
29917;DHT22;16786;49.466;11.068;2023-07-09T13:33:55;38.70;45.10
29917;DHT22;16786;49.466;11.068;2023-07-09T13:36:23;38.60;45.30
29917;DHT22;16786;49.466;11.068;2023-07-09T13:38:51;38.70;45.60
29917;DHT22;16786;49.466;11.068;2023-07-09T13:41:19;38.50;45.70
29917;DHT22;16786;49.466;11.068;2023-07-09T13:43:49;38.40;45.80
29917;DHT22;16786;49.466;11.068;2023-07-09T13:46:17;38.40;45.80
29917;DHT22;16786;49.466;11.068;2023-07-09T13:48:45;38.30;45.50
29917;DHT22;16786;49.466;11.068;2023-07-09T13:51:22;38.50;45.50
29917;DHT22;16786;49.466;11.068;2023-07-09T13:53:52;38.70;45.70
29917;DHT22;16786;49.466;11.068;2023-07-09T13:56:20;40.20;44.80
29917;DHT22;16786;49.466;11.068;2023-07-09T13:58:48;40.70;43.50
29917;DHT22;16786;49.466;11.068;2023-07-09T14:01:20;40.90;42.90
29917;DHT22;16786;49.466;11.068;2023-07-09T14:03:49;40.70;43.30
29917;DHT22;16786;49.466;11.068;2023-07-09T14:06:17;41.00;43.70
29917;DHT22;16786;49.466;11.068;2023-07-09T14:08:44;41.80;42.50
29917;DHT22;16786;49.466;11.068;2023-07-09T14:11:14;42.50;42.00
29917;DHT22;16786;49.466;11.068;2023-07-09T14:13:41;44.00;40.40
29917;DHT22;16786;49.466;11.068;2023-07-09T14:16:11;45.00;39.40
29917;DHT22;16786;49.466;11.068;2023-07-09T14:18:39;46.50;38.90
29917;DHT22;16786;49.466;11.068;2023-07-09T14:21:24;48.20;37.60
29917;DHT22;16786;49.466;11.068;2023-07-09T14:23:54;49.60;36.20
29917;DHT22;16786;49.466;11.068;2023-07-09T14:26:21;49.20;35.10
29917;DHT22;16786;49.466;11.068;2023-07-09T14:28:48;47.80;35.70
29917;DHT22;16786;49.466;11.068;2023-07-09T14:31:24;46.20;36.20
29917;DHT22;16786;49.466;11.068;2023-07-09T14:33:54;44.70;37.20
29917;DHT22;16786;49.466;11.068;2023-07-09T14:36:22;44.50;38.10
29917;DHT22;16786;49.466;11.068;2023-07-09T14:38:49;45.80;37.20
29917;DHT22;16786;49.466;11.068;2023-07-09T14:41:23;47.80;36.30
29917;DHT22;16786;49.466;11.068;2023-07-09T14:43:53;50.30;34.30
29917;DHT22;16786;49.466;11.068;2023-07-09T14:46:21;50.60;32.90
29917;DHT22;16786;49.466;11.068;2023-07-09T14:48:49;48.30;33.80
29917;DHT22;16786;49.466;11.068;2023-07-09T14:51:16;46.20;35.50
29917;DHT22;16786;49.466;11.068;2023-07-09T14:53:45;44.80;36.50
29917;DHT22;16786;49.466;11.068;2023-07-09T14:56:14;43.70;37.40
29917;DHT22;16786;49.466;11.068;2023-07-09T14:58:41;44.50;37.00
29917;DHT22;16786;49.466;11.068;2023-07-09T15:01:15;46.50;35.90
29917;DHT22;16786;49.466;11.068;2023-07-09T15:03:44;48.40;34.80
29917;DHT22;16786;49.466;11.068;2023-07-09T15:06:11;49.50;33.70
29917;DHT22;16786;49.466;11.068;2023-07-09T15:08:38;51.40;32.90
29917;DHT22;16786;49.466;11.068;2023-07-09T15:11:08;52.00;32.00
29917;DHT22;16786;49.466;11.068;2023-07-09T15:13:36;52.80;31.30
29917;DHT22;16786;49.466;11.068;2023-07-09T15:16:04;53.10;30.60
29917;DHT22;16786;49.466;11.068;2023-07-09T15:18:32;53.40;30.60
29917;DHT22;16786;49.466;11.068;2023-07-09T15:21:04;53.60;30.20
29917;DHT22;16786;49.466;11.068;2023-07-09T15:23:37;55.20;29.30
29917;DHT22;16786;49.466;11.068;2023-07-09T15:26:14;54.90;29.30
29917;DHT22;16786;49.466;11.068;2023-07-09T15:28:41;52.70;29.80
29917;DHT22;16786;49.466;11.068;2023-07-09T15:31:12;51.60;30.30
29917;DHT22;16786;49.466;11.068;2023-07-09T15:33:40;52.00;30.30
29917;DHT22;16786;49.466;11.068;2023-07-09T15:36:11;52.70;29.90
29917;DHT22;16786;49.466;11.068;2023-07-09T15:38:39;53.10;29.70
29917;DHT22;16786;49.466;11.068;2023-07-09T15:41:14;53.40;29.50
29917;DHT22;16786;49.466;11.068;2023-07-09T15:43:43;54.20;29.10
29917;DHT22;16786;49.466;11.068;2023-07-09T15:46:19;53.80;29.10
29917;DHT22;16786;49.466;11.068;2023-07-09T15:48:50;53.40;29.00
29917;DHT22;16786;49.466;11.068;2023-07-09T15:51:18;54.20;28.60
29917;DHT22;16786;49.466;11.068;2023-07-09T15:53:46;54.00;28.90
29917;DHT22;16786;49.466;11.068;2023-07-09T15:56:30;53.40;29.50
29917;DHT22;16786;49.466;11.068;2023-07-09T15:59:00;53.20;29.20
29917;DHT22;16786;49.466;11.068;2023-07-09T16:01:28;53.10;29.20
29917;DHT22;16786;49.466;11.068;2023-07-09T16:04:00;53.50;29.10
29917;DHT22;16786;49.466;11.068;2023-07-09T16:06:30;53.50;29.10
29917;DHT22;16786;49.466;11.068;2023-07-09T16:08:58;53.20;29.10
29917;DHT22;16786;49.466;11.068;2023-07-09T16:11:26;52.80;29.10
29917;DHT22;16786;49.466;11.068;2023-07-09T16:13:53;52.60;29.20